Prairie Center, Wyoming
Current Conditions -  °F | °C
As of 12:53 PM on Thursday 23 Oct 2014 (Local Time) from KTOR Reporting Station
Clear Clear  
Wind Chill: 71°   Ceiling: Unl
Heat Index: 71°   Visibility: 10mi
Dew Point: 31°   Wind: 17mph
Humidity: 23%   Direction: 260°W
Pressure: 30.03"   Gusts: 22mph
Location:  41.9687°N, 104.195°W
Report Text: KTOR 231853Z AUTO 26015G19KT 10SM CLR 22/M01 A3003 RMK AO2 SLP140 T02171006
Loading
Personal Weather Stations






























Interactive Weather Map
Tropical Storm Tracking
New forecast layout! Learn more

10-Day Weather Forecast

Advertisements
Track Severe Weather on mobile